Time;durP1;ratioP1;P1;durP2;ratioP2;P2;SDS_P1;SDS_P2;PMS_P1;PMS_P2;Temp;Humidity;BMP_temperature;BMP_pressure;BME280_temperature;BME280_humidity;BME280_pressure;Samples;Min_cycle;Max_cycle;Signal;HPM_P1;HPM_P2
2023/04/03 00:04:36;;;;;;;12.07;3.17;;;;;;;9.76;100.00;99077.31;31516132;28;20147;-84
2023/04/03 00:19:40;;;;;;;4.63;2.53;;;;;;;9.76;100.00;99074.59;31481993;28;20056;-84
2023/04/03 00:34:59;;;;;;;8.70;4.10;;;;;;;9.73;100.00;99045.66;31406245;28;20040;-84
2023/04/03 00:50:02;;;;;;;6.20;2.73;;;;;;;9.89;100.00;99028.50;31363980;28;20156;-85
2023/04/03 01:05:06;;;;;;;5.47;2.97;;;;;;;10.02;100.00;99017.59;31375005;28;20518;-86
2023/04/03 01:20:41;;;;;;;4.40;2.87;;;;;;;10.09;100.00;99003.81;31459841;28;20470;-86
2023/04/03 01:35:48;;;;;;;6.80;3.23;;;;;;;10.09;100.00;98998.38;31509356;28;20056;-85
2023/04/03 01:50:50;;;;;;;6.87;3.43;;;;;;;10.11;100.00;98977.75;31553222;28;20078;-85
2023/04/03 02:05:52;;;;;;;6.23;3.80;;;;;;;10.00;100.00;98979.31;31568427;28;20055;-85
2023/04/03 02:20:54;;;;;;;5.07;3.07;;;;;;;10.09;100.00;98971.25;31512954;28;20118;-87
2023/04/03 02:35:56;;;;;;;5.57;3.77;;;;;;;10.09;100.00;98950.34;31506570;28;20131;-85
2023/04/03 02:51:04;;;;;;;6.97;3.57;;;;;;;10.07;100.00;98944.59;31521890;28;20037;-87
2023/04/03 03:06:12;;;;;;;6.67;4.40;;;;;;;10.17;100.00;98939.97;31559528;28;20493;-86
2023/04/03 03:21:14;;;;;;;6.00;3.93;;;;;;;10.18;100.00;98930.63;31427072;28;20061;-87
2023/04/03 03:36:16;;;;;;;7.00;4.47;;;;;;;10.30;100.00;98926.38;31372885;28;20045;-86
2023/04/03 03:51:18;;;;;;;5.03;3.20;;;;;;;10.21;100.00;98922.41;31447121;28;20572;-86
2023/04/03 04:06:21;;;;;;;7.77;4.37;;;;;;;10.37;100.00;98909.84;31476470;28;20072;-85
2023/04/03 04:21:23;;;;;;;5.53;3.70;;;;;;;10.50;100.00;98903.09;31415698;28;20057;-87
2023/04/03 04:36:25;;;;;;;6.50;3.53;;;;;;;10.45;100.00;98883.94;31444032;28;20071;-85
2023/04/03 04:51:27;;;;;;;4.57;2.77;;;;;;;10.57;100.00;98891.97;31452629;28;20049;-84
2023/04/03 05:06:35;;;;;;;7.03;3.63;;;;;;;10.73;100.00;98890.97;31434219;28;20045;-86
2023/04/03 05:21:37;;;;;;;5.77;3.40;;;;;;;10.82;100.00;98890.25;31424311;28;20052;-86
2023/04/03 05:36:41;;;;;;;33.43;16.23;;;;;;;10.91;100.00;98904.59;31417538;28;20049;-85
2023/04/03 05:51:44;;;;;;;2.67;2.27;;;;;;;10.99;100.00;98920.59;31414417;28;20440;-87
2023/04/03 06:06:51;;;;;;;4.93;2.70;;;;;;;11.02;100.00;98934.03;31421881;28;20080;-86
2023/04/03 06:21:56;;;;;;;4.50;2.97;;;;;;;11.03;100.00;98940.97;31425353;28;20057;-84
2023/04/03 06:36:58;;;;;;;4.43;2.63;;;;;;;11.13;100.00;98931.63;31398184;28;20459;-89
2023/04/03 06:52:00;;;;;;;20.23;4.10;;;;;;;11.30;100.00;98958.53;31454741;28;20441;-90
2023/04/03 07:07:03;;;;;;;22.17;10.70;;;;;;;11.46;100.00;98969.13;31369167;28;20151;-84
2023/04/03 07:22:05;;;;;;;7.77;3.83;;;;;;;11.72;100.00;98981.22;31382311;28;20716;-85
2023/04/03 07:37:10;;;;;;;7.20;3.23;;;;;;;11.74;100.00;99000.56;31388067;28;20057;-84
2023/04/03 07:52:17;;;;;;;6.73;4.03;;;;;;;11.79;100.00;99031.88;31400724;28;20061;-85
2023/04/03 08:07:20;;;;;;;16.27;8.77;;;;;;;11.97;100.00;99050.16;31408021;28;20183;-88
2023/04/03 08:22:22;;;;;;;7.23;4.97;;;;;;;12.13;100.00;99077.81;31527016;28;20055;-86
2023/04/03 08:37:25;;;;;;;10.03;6.17;;;;;;;11.96;100.00;99109.25;31512811;28;20563;-86
2023/04/03 08:52:41;;;;;;;10.67;4.90;;;;;;;11.89;100.00;99137.47;31532408;28;20048;-86
2023/04/03 09:08:11;;;;;;;9.27;5.07;;;;;;;12.00;100.00;99161.53;31503961;28;20041;-85
2023/04/03 09:23:24;;;;;;;10.10;6.07;;;;;;;12.36;100.00;99190.00;31385026;28;20076;-83
2023/04/03 09:38:33;;;;;;;15.37;6.50;;;;;;;12.09;100.00;99217.91;31389637;28;20057;-83
2023/04/03 09:53:41;;;;;;;14.53;7.67;;;;;;;12.05;100.00;99239.03;31358062;28;20052;-84
2023/04/03 10:08:59;;;;;;;19.87;10.07;;;;;;;11.80;100.00;99270.69;31373123;28;20052;-83
2023/04/03 10:24:14;;;;;;;27.07;13.83;;;;;;;11.80;100.00;99300.63;31472616;28;20086;-80
2023/04/03 10:39:28;;;;;;;27.60;12.97;;;;;;;12.00;100.00;99329.41;31471718;28;20052;-82
2023/04/03 10:54:40;;;;;;;31.37;13.40;;;;;;;12.00;100.00;99343.78;31467762;28;20053;-83
2023/04/03 11:09:51;;;;;;;36.27;15.10;;;;;;;12.10;100.00;99374.47;31495357;28;20485;-86
2023/04/03 11:25:13;;;;;;;33.87;14.03;;;;;;;12.49;100.00;99367.56;31526401;28;20052;-87
2023/04/03 11:40:15;;;;;;;32.83;15.97;;;;;;;12.51;100.00;99382.25;31560908;28;20048;-84
2023/04/03 11:55:23;;;;;;;31.90;16.13;;;;;;;13.14;100.00;99399.19;31505872;28;20048;-83
2023/04/03 12:10:25;;;;;;;28.60;13.53;;;;;;;13.50;100.00;99414.81;31525272;28;20053;-83
2023/04/03 12:26:15;;;;;;;35.13;16.73;;;;;;;13.51;100.00;99432.69;31458383;28;20056;-84
2023/04/03 12:41:42;;;;;;;26.30;11.60;;;;;;;12.89;100.00;99454.69;31484535;28;20048;-83
2023/04/03 12:56:46;;;;;;;29.73;13.57;;;;;;;12.53;100.00;99452.56;31577735;28;20052;-86
2023/04/03 13:12:02;;;;;;;28.63;12.90;;;;;;;12.09;100.00;99454.56;31559758;28;20103;-83
2023/04/03 13:27:42;;;;;;;;;;;;;;;12.07;100.00;99484.94;31387637;28;20053;-85
2023/04/03 13:43:04;;;;;;;38.03;15.27;;;;;;;12.33;100.00;99479.38;31385009;28;20310;-85
2023/04/03 13:58:16;;;;;;;42.20;19.47;;;;;;;12.79;100.00;99493.97;31374317;28;20059;-85
2023/04/03 14:13:23;;;;;;;30.53;12.93;;;;;;;12.68;100.00;99504.53;31431775;28;20051;-86
2023/04/03 14:28:28;;;;;;;37.57;14.83;;;;;;;12.68;100.00;99520.88;31527898;28;20052;-86
2023/04/03 14:43:39;;;;;;;24.80;12.60;;;;;;;12.62;100.00;99524.16;31572604;28;20419;-89
2023/04/03 14:58:41;;;;;;;21.43;10.43;;;;;;;12.73;100.00;99559.19;31611586;28;20048;-84
2023/04/03 15:14:13;;;;;;;37.73;17.70;;;;;;;12.71;100.00;99572.47;31584633;28;20464;-85
2023/04/03 15:29:41;;;;;;;20.83;10.67;;;;;;;12.53;100.00;99597.59;31330738;28;20041;-87
2023/04/03 15:44:44;;;;;;;24.73;12.13;;;;;;;12.30;100.00;99611.66;31276426;28;20045;-88
2023/04/03 15:59:46;;;;;;;31.33;17.63;;;;;;;12.27;100.00;99613.31;31494119;28;20068;-85
2023/04/03 16:14:49;;;;;;;27.57;15.37;;;;;;;12.25;100.00;99634.00;31489312;28;20143;-85
2023/04/03 16:29:51;;;;;;;28.17;13.00;;;;;;;12.32;100.00;99663.69;31371645;28;20087;-85
2023/04/03 16:44:53;;;;;;;33.57;12.47;;;;;;;12.17;100.00;99692.56;31353977;28;20055;-85
2023/04/03 16:59:55;;;;;;;34.87;13.23;;;;;;;12.18;100.00;99713.13;31364883;28;20475;-85
2023/04/03 17:14:58;;;;;;;35.87;14.90;;;;;;;12.11;100.00;99729.69;31386363;28;20053;-85
2023/04/03 17:30:22;;;;;;;49.47;19.83;;;;;;;11.75;100.00;99760.69;31410399;28;20102;-86
2023/04/03 17:45:38;;;;;;;39.87;16.60;;;;;;;11.79;100.00;99769.53;31390861;28;20077;-87
2023/04/03 18:00:41;;;;;;;40.30;16.80;;;;;;;11.76;100.00;99786.72;31401053;28;20049;-88
2023/04/03 18:15:44;;;;;;;56.63;17.80;;;;;;;11.77;100.00;99799.13;31417060;28;20074;-85
2023/04/03 18:30:50;;;;;;;45.33;18.37;;;;;;;11.75;100.00;99808.88;31578876;28;20497;-86
2023/04/03 18:45:52;;;;;;;48.77;18.07;;;;;;;11.65;100.00;99807.97;31539169;28;20090;-87
2023/04/03 19:00:54;;;;;;;42.53;17.90;;;;;;;11.56;100.00;99826.88;31528589;28;20040;-87
2023/04/03 19:16:03;;;;;;;37.17;15.60;;;;;;;11.52;100.00;99840.56;31524665;28;20059;-86
2023/04/03 19:31:13;;;;;;;44.60;16.50;;;;;;;11.53;100.00;99847.53;31504620;28;20090;-85
2023/04/03 19:46:17;;;;;;;43.43;18.00;;;;;;;11.49;100.00;99859.69;31538907;28;20059;-80
2023/04/03 20:01:25;;;;;;;37.90;14.50;;;;;;;11.54;100.00;99867.34;31534120;28;20040;-81
2023/04/03 20:16:28;;;;;;;37.97;15.43;;;;;;;11.53;100.00;99876.69;31519297;28;20049;-90
2023/04/03 20:31:31;;;;;;;72.73;30.43;;;;;;;11.40;100.00;99878.56;31468589;28;20449;-86
2023/04/03 20:46:36;;;;;;;35.23;15.20;;;;;;;11.55;100.00;99879.72;31494481;28;20094;-89
2023/04/03 21:02:17;;;;;;;53.20;24.40;;;;;;;11.47;100.00;99890.03;31463779;28;20048;-86
2023/04/03 21:18:03;;;;;;;42.47;19.07;;;;;;;11.46;100.00;99898.59;31514959;28;20432;-85
2023/04/03 21:33:29;;;;;;;35.47;17.70;;;;;;;11.47;100.00;99905.56;31522914;28;20048;-84
2023/04/03 21:49:18;;;;;;;37.07;15.30;;;;;;;11.44;100.00;99933.59;31546356;28;20131;-84
2023/04/03 22:04:21;;;;;;;46.77;18.37;;;;;;;11.35;100.00;99949.75;31524961;28;20572;-85
2023/04/03 22:19:27;;;;;;;;;;;;;;;11.47;100.00;99965.38;31567751;28;20118;-84
2023/04/03 22:34:36;;;;;;;39.57;15.83;;;;;;;11.58;100.00;99960.41;31520613;28;19928;-86
2023/04/03 22:49:41;;;;;;;35.77;14.10;;;;;;;11.47;100.00;99976.25;31530569;28;20126;-85
2023/04/03 23:04:43;;;;;;;32.73;14.07;;;;;;;11.53;100.00;99985.41;31553421;28;20044;-86
2023/04/03 23:19:48;;;;;;;39.10;15.67;;;;;;;11.50;100.00;99997.91;31462853;28;20053;-85
2023/04/03 23:34:50;;;;;;;42.33;15.93;;;;;;;11.52;100.00;100005.63;31403509;28;20041;-84
2023/04/03 23:50:09;;;;;;;38.27;14.67;;;;;;;11.42;100.00;99990.34;31473249;27;20394;-79
